Time,TemperatureF,DewpointF,PressureIn,WindDirection,WindDirectionDegrees,WindSpeedMPH,WindSpeedGustMPH,Humidity,HourlyPrecipIn,Conditions,Clouds,dailyrainin,SoftwareType,DateUTC
2013-04-05 00:00:00,34.8,24.2,30.14,SW,219,8.0,22.0,65,0.00,,,0.00,Wunderground v.1.15,2013-04-05 03:00:00,
2013-04-05 00:10:00,34.7,25.2,30.14,SW,214,8.0,22.0,68,0.00,,,0.00,Wunderground v.1.15,2013-04-05 03:10:00,
2013-04-05 00:20:00,34.7,25.2,30.14,SSW,197,8.0,8.0,68,0.00,,,0.00,Wunderground v.1.15,2013-04-05 03:20:00,
2013-04-05 00:30:00,34.7,25.6,30.14,South,186,8.0,22.0,69,0.00,,,0.00,Wunderground v.1.15,2013-04-05 03:30:00,
2013-04-05 00:40:00,34.7,25.9,30.13,SSW,200,9.0,9.0,70,0.00,,,0.00,Wunderground v.1.15,2013-04-05 03:40:00,
2013-04-05 00:50:00,34.7,25.9,30.13,South,176,8.0,22.0,70,0.00,,,0.00,Wunderground v.1.15,2013-04-05 03:50:00,
2013-04-05 01:00:00,34.8,26.0,30.12,South,191,8.0,8.0,70,0.00,,,0.00,Wunderground v.1.15,2013-04-05 04:00:00,
2013-04-05 01:10:00,35.0,25.9,30.12,SSW,202,8.0,22.0,69,0.00,,,0.00,Wunderground v.1.15,2013-04-05 04:10:00,
2013-04-05 01:20:00,35.2,26.0,30.12,South,172,8.0,22.0,69,0.00,,,0.00,Wunderground v.1.15,2013-04-05 04:20:00,
2013-04-05 01:30:00,35.2,26.0,30.12,South,184,8.0,22.0,69,0.00,,,0.00,Wunderground v.1.15,2013-04-05 04:30:00,
2013-04-05 01:40:00,35.1,25.9,30.12,SSW,194,8.0,22.0,69,0.00,,,0.00,Wunderground v.1.15,2013-04-05 04:40:00,
2013-04-05 01:50:00,35.1,26.3,30.12,SSW,205,8.0,8.0,70,0.00,,,0.00,Wunderground v.1.15,2013-04-05 04:50:00,
2013-04-05 02:00:00,35.1,26.3,30.11,SSW,195,9.0,9.0,70,0.00,,,0.00,Wunderground v.1.15,2013-04-05 05:00:00,
2013-04-05 02:10:00,35.2,26.4,30.11,SSW,205,9.0,9.0,70,0.00,,,0.00,Wunderground v.1.15,2013-04-05 05:10:00,
2013-04-05 02:20:00,35.3,26.5,30.11,SSE,160,8.0,22.0,70,0.00,,,0.00,Wunderground v.1.15,2013-04-05 05:20:00,
2013-04-05 02:30:00,35.5,26.7,30.11,SSW,195,9.0,9.0,70,0.00,,,0.00,Wunderground v.1.15,2013-04-05 05:30:00,
2013-04-05 02:40:00,35.5,27.0,30.11,South,187,7.0,22.0,71,0.00,,,0.00,Wunderground v.1.15,2013-04-05 05:40:00,
2013-04-05 02:50:00,35.7,26.9,30.11,SSW,197,8.0,22.0,70,0.00,,,0.00,Wunderground v.1.15,2013-04-05 05:50:00,
2013-04-05 03:00:00,35.9,27.1,30.11,South,185,9.0,9.0,70,0.00,,,0.00,Wunderground v.1.15,2013-04-05 06:00:00,
2013-04-05 03:10:00,36.1,26.9,30.10,South,191,10.0,10.0,69,0.00,,,0.00,Wunderground v.1.15,2013-04-05 06:10:00,
2013-04-05 03:20:00,36.3,27.1,30.10,South,187,10.0,10.0,69,0.00,,,0.00,Wunderground v.1.15,2013-04-05 06:20:00,
2013-04-05 03:30:00,36.3,27.1,30.10,South,190,9.0,9.0,69,0.00,,,0.00,Wunderground v.1.15,2013-04-05 06:30:00,
2013-04-05 03:40:00,36.2,27.0,30.10,SSW,201,7.0,22.0,69,0.00,,,0.00,Wunderground v.1.15,2013-04-05 06:40:00,
2013-04-05 03:50:00,36.1,26.9,30.09,SSW,210,8.0,22.0,69,0.00,,,0.00,Wunderground v.1.15,2013-04-05 06:50:00,
2013-04-05 04:00:00,36.0,27.2,30.10,South,186,6.0,22.0,70,0.00,,,0.00,Wunderground v.1.15,2013-04-05 07:00:00,
2013-04-05 04:10:00,36.0,27.2,30.09,SSE,159,5.0,22.0,70,0.00,,,0.00,Wunderground v.1.15,2013-04-05 07:10:00,
2013-04-05 04:20:00,36.1,27.3,30.10,SW,214,6.0,6.0,70,0.00,,,0.00,Wunderground v.1.15,2013-04-05 07:20:00,
2013-04-05 04:30:00,36.2,27.7,30.09,SSW,197,6.0,22.0,71,0.00,,,0.00,Wunderground v.1.15,2013-04-05 07:30:00,
2013-04-05 04:40:00,36.2,27.7,30.09,South,181,6.0,6.0,71,0.00,,,0.00,Wunderground v.1.15,2013-04-05 07:40:00,
2013-04-05 04:50:00,36.3,27.8,30.10,SSE,166,6.0,22.0,71,0.00,,,0.00,Wunderground v.1.15,2013-04-05 07:50:00,
2013-04-05 05:00:00,36.2,27.7,30.09,South,184,6.0,22.0,71,0.00,,,0.00,Wunderground v.1.15,2013-04-05 08:00:00,
2013-04-05 05:10:00,36.3,27.8,30.09,South,169,6.0,22.0,71,0.00,,,0.00,Wunderground v.1.15,2013-04-05 08:10:00,
2013-04-05 05:20:00,36.2,28.0,30.09,South,174,6.0,6.0,72,0.00,,,0.00,Wunderground v.1.15,2013-04-05 08:20:00,
2013-04-05 05:30:00,36.1,27.9,30.09,SSW,193,6.0,22.0,72,0.00,,,0.00,Wunderground v.1.15,2013-04-05 08:30:00,
2013-04-05 05:40:00,36.0,28.2,30.09,SW,214,5.0,22.0,73,0.00,,,0.00,Wunderground v.1.15,2013-04-05 08:40:00,
2013-04-05 05:50:00,35.9,28.1,30.09,SSE,160,6.0,6.0,73,0.00,,,0.00,Wunderground v.1.15,2013-04-05 08:50:00,
2013-04-05 06:00:00,35.6,28.1,30.09,South,175,5.0,5.0,74,0.00,,,0.00,Wunderground v.1.15,2013-04-05 09:00:00,
2013-04-05 06:10:00,35.5,28.0,30.09,South,176,6.0,6.0,74,0.00,,,0.00,Wunderground v.1.15,2013-04-05 09:10:00,
2013-04-05 06:20:00,35.1,27.6,30.08,South,190,4.0,22.0,74,0.00,,,0.00,Wunderground v.1.15,2013-04-05 09:20:00,
2013-04-05 06:30:00,34.3,27.5,30.08,South,186,5.0,5.0,76,0.00,,,0.00,Wunderground v.1.15,2013-04-05 09:30:00,
2013-04-05 06:40:00,33.9,27.4,30.08,SSE,163,6.0,6.0,77,0.00,,,0.00,Wunderground v.1.15,2013-04-05 09:40:00,
2013-04-05 06:50:00,33.9,27.4,30.08,SE,143,6.0,22.0,77,0.00,,,0.00,Wunderground v.1.15,2013-04-05 09:50:00,
2013-04-05 07:00:00,33.8,27.7,30.09,SSW,198,6.0,6.0,78,0.00,,,0.00,Wunderground v.1.15,2013-04-05 10:00:00,
2013-04-05 07:10:00,33.9,27.8,30.08,South,181,6.0,6.0,78,0.00,,,0.00,Wunderground v.1.15,2013-04-05 10:10:00,
2013-04-05 07:20:00,34.1,28.0,30.08,SE,139,6.0,22.0,78,0.00,,,0.00,Wunderground v.1.15,2013-04-05 10:20:00,
2013-04-05 07:30:00,34.3,28.2,30.08,South,188,6.0,22.0,78,0.00,,,0.00,Wunderground v.1.15,2013-04-05 10:30:00,
2013-04-05 07:40:00,34.4,27.9,30.08,SSE,156,7.0,22.0,77,0.00,,,0.00,Wunderground v.1.15,2013-04-05 10:40:00,
2013-04-05 07:50:00,34.5,27.7,30.08,South,191,7.0,22.0,76,0.00,,,0.00,Wunderground v.1.15,2013-04-05 10:50:00,
2013-04-05 08:00:00,34.4,27.6,30.09,SE,143,8.0,22.0,76,0.00,,,0.00,Wunderground v.1.15,2013-04-05 11:00:00,
2013-04-05 08:10:00,35.0,28.2,30.08,SE,142,7.0,22.0,76,0.00,,,0.00,Wunderground v.1.15,2013-04-05 11:10:00,
2013-04-05 08:20:00,35.5,28.4,30.08,SSE,156,7.0,22.0,75,0.00,,,0.00,Wunderground v.1.15,2013-04-05 11:20:00,
2013-04-05 08:30:00,35.8,28.3,30.08,South,169,8.0,8.0,74,0.00,,,0.00,Wunderground v.1.15,2013-04-05 11:30:00,
2013-04-05 08:40:00,36.4,28.6,30.08,SSW,194,8.0,8.0,73,0.00,,,0.00,Wunderground v.1.15,2013-04-05 11:40:00,
2013-04-05 08:50:00,36.9,29.1,30.07,South,187,8.0,22.0,73,0.00,,,0.00,Wunderground v.1.15,2013-04-05 11:50:00,
2013-04-05 09:00:00,37.3,29.1,30.08,South,180,10.0,22.0,72,0.00,,,0.00,Wunderground v.1.15,2013-04-05 12:00:00,
2013-04-05 09:10:00,37.3,29.1,30.08,SSE,152,9.0,22.0,72,0.00,,,0.00,Wunderground v.1.15,2013-04-05 12:10:00,
2013-04-05 09:20:00,37.2,29.0,30.07,South,169,9.0,9.0,72,0.00,,,0.00,Wunderground v.1.15,2013-04-05 12:20:00,
2013-04-05 09:30:00,37.1,29.2,30.07,South,173,9.0,9.0,73,0.00,,,0.00,Wunderground v.1.15,2013-04-05 12:30:00,
2013-04-05 09:40:00,36.9,29.1,30.07,South,169,9.0,22.0,73,0.00,,,0.00,Wunderground v.1.15,2013-04-05 12:40:00,
2013-04-05 09:50:00,37.3,29.4,30.07,SSE,156,8.0,22.0,73,0.00,,,0.00,Wunderground v.1.15,2013-04-05 12:50:00,
2013-04-05 10:00:00,37.3,29.4,30.06,South,183,9.0,9.0,73,0.00,,,0.00,Wunderground v.1.15,2013-04-05 13:00:00,
2013-04-05 10:10:00,37.3,29.4,30.06,South,169,9.0,9.0,73,0.00,,,0.00,Wunderground v.1.15,2013-04-05 13:10:00,
2013-04-05 10:20:00,38.0,30.1,30.06,SSE,153,9.0,9.0,73,0.00,,,0.00,Wunderground v.1.15,2013-04-05 13:20:00,
2013-04-05 10:30:00,39.1,30.5,30.05,SSW,200,9.0,22.0,71,0.00,,,0.00,Wunderground v.1.15,2013-04-05 13:30:00,
2013-04-05 10:40:00,39.3,31.0,30.05,SSE,152,11.0,22.0,72,0.00,,,0.00,Wunderground v.1.15,2013-04-05 13:40:00,
2013-04-05 10:50:00,39.8,31.5,30.05,South,188,11.0,11.0,72,0.00,,,0.00,Wunderground v.1.15,2013-04-05 13:50:00,
2013-04-05 11:00:00,40.1,31.4,30.05,SSW,208,10.0,22.0,71,0.00,,,0.00,Wunderground v.1.15,2013-04-05 14:00:00,
2013-04-05 11:10:00,40.1,31.8,30.05,SSE,167,10.0,10.0,72,0.00,,,0.00,Wunderground v.1.15,2013-04-05 14:10:00,
2013-04-05 11:20:00,40.3,32.3,30.05,South,190,11.0,22.0,73,0.00,,,0.00,Wunderground v.1.15,2013-04-05 14:20:00,
2013-04-05 11:30:00,40.6,32.3,30.05,SE,124,9.0,22.0,72,0.00,,,0.00,Wunderground v.1.15,2013-04-05 14:30:00,
2013-04-05 11:40:00,40.6,32.6,30.05,South,169,10.0,22.0,73,0.00,,,0.00,Wunderground v.1.15,2013-04-05 14:40:00,
2013-04-05 11:50:00,40.7,32.4,30.04,SSE,150,10.0,22.0,72,0.00,,,0.00,Wunderground v.1.15,2013-04-05 14:50:00,
2013-04-05 12:00:00,41.1,32.8,30.04,SSW,208,9.0,22.0,72,0.00,,,0.00,Wunderground v.1.15,2013-04-05 15:00:00,
2013-04-05 12:10:00,41.8,33.1,30.04,South,180,8.0,8.0,71,0.00,,,0.00,Wunderground v.1.15,2013-04-05 15:10:00,
2013-04-05 12:20:00,42.0,33.3,30.03,SSE,160,10.0,22.0,71,0.00,,,0.00,Wunderground v.1.15,2013-04-05 15:20:00,
2013-04-05 12:30:00,42.4,33.7,30.02,South,190,10.0,10.0,71,0.00,,,0.00,Wunderground v.1.15,2013-04-05 15:30:00,
2013-04-05 12:40:00,42.7,33.6,30.03,South,183,10.0,22.0,70,0.00,,,0.00,Wunderground v.1.15,2013-04-05 15:40:00,
2013-04-05 13:00:00,43.3,34.2,30.00,South,187,10.0,22.0,70,0.00,,,0.00,Wunderground v.1.15,2013-04-05 16:00:00,
2013-04-05 13:10:00,43.5,34.7,30.01,South,185,9.0,9.0,71,0.00,,,0.00,Wunderground v.1.15,2013-04-05 16:10:00,
2013-04-05 13:20:00,43.4,34.3,30.01,South,175,12.0,12.0,70,0.00,,,0.00,Wunderground v.1.15,2013-04-05 16:20:00,
2013-04-05 13:30:00,43.3,34.2,30.01,SSE,152,13.0,22.0,70,0.00,,,0.00,Wunderground v.1.15,2013-04-05 16:30:00,
2013-04-05 13:40:00,43.3,33.8,30.00,South,174,11.0,22.0,69,0.00,,,0.00,Wunderground v.1.15,2013-04-05 16:40:00,
2013-04-05 13:50:00,43.4,34.3,29.99,South,183,11.0,11.0,70,0.00,,,0.00,Wunderground v.1.15,2013-04-05 16:50:00,
2013-04-05 14:00:00,43.9,34.0,29.99,SSE,160,12.0,12.0,68,0.00,,,0.00,Wunderground v.1.15,2013-04-05 17:00:00,
2013-04-05 14:10:00,44.7,34.4,29.98,South,169,12.0,12.0,67,0.00,,,0.00,Wunderground v.1.15,2013-04-05 17:10:00,
2013-04-05 14:20:00,45.1,34.8,29.97,South,173,11.0,11.0,67,0.00,,,0.00,Wunderground v.1.15,2013-04-05 17:20:00,
2013-04-05 14:30:00,45.1,34.4,29.96,SSW,203,11.0,11.0,66,0.00,,,0.00,Wunderground v.1.15,2013-04-05 17:30:00,
2013-04-05 14:40:00,45.8,34.7,29.95,South,184,10.0,22.0,65,0.00,,,0.00,Wunderground v.1.15,2013-04-05 17:40:00,
2013-04-05 14:50:00,46.7,34.4,29.94,South,172,11.0,22.0,62,0.00,,,0.00,Wunderground v.1.15,2013-04-05 17:50:00,
2013-04-05 15:00:00,47.3,34.9,29.94,South,174,12.0,12.0,62,0.00,,,0.00,Wunderground v.1.15,2013-04-05 18:00:00,
2013-04-05 15:10:00,48.1,35.3,29.94,South,180,9.0,22.0,61,0.00,,,0.00,Wunderground v.1.15,2013-04-05 18:10:00,
2013-04-05 15:20:00,48.0,34.8,29.93,South,183,10.0,22.0,60,0.00,,,0.00,Wunderground v.1.15,2013-04-05 18:20:00,
2013-04-05 15:30:00,48.1,34.4,29.92,SSW,204,10.0,10.0,59,0.00,,,0.00,Wunderground v.1.15,2013-04-05 18:30:00,
2013-04-05 15:40:00,48.9,33.9,29.92,South,181,9.0,9.0,56,0.00,,,0.00,Wunderground v.1.15,2013-04-05 18:40:00,
2013-04-05 15:50:00,49.5,34.0,29.91,SE,139,10.0,22.0,55,0.00,,,0.00,Wunderground v.1.15,2013-04-05 18:50:00,
2013-04-05 16:00:00,50.2,34.2,29.90,South,180,8.0,8.0,54,0.00,,,0.00,Wunderground v.1.15,2013-04-05 19:00:00,
2013-04-05 16:10:00,49.6,32.7,29.90,SSE,150,10.0,10.0,52,0.00,,,0.00,Wunderground v.1.15,2013-04-05 19:10:00,
2013-04-05 16:20:00,49.4,33.0,29.90,SSE,166,10.0,22.0,53,0.00,,,0.00,Wunderground v.1.15,2013-04-05 19:20:00,
2013-04-05 16:30:00,49.6,32.7,29.89,SSW,212,10.0,10.0,52,0.00,,,0.00,Wunderground v.1.15,2013-04-05 19:30:00,
2013-04-05 16:40:00,49.9,33.0,29.89,SE,143,8.0,22.0,52,0.00,,,0.00,Wunderground v.1.15,2013-04-05 19:40:00,
2013-04-05 16:50:00,48.6,31.3,29.89,South,170,9.0,22.0,51,0.00,,,0.00,Wunderground v.1.15,2013-04-05 19:50:00,
2013-04-05 17:00:00,47.7,31.4,29.88,South,180,10.0,22.0,53,0.00,,,0.00,Wunderground v.1.15,2013-04-05 20:00:00,
2013-04-05 17:10:00,47.1,32.2,29.88,SE,136,9.0,22.0,56,0.00,,,0.00,Wunderground v.1.15,2013-04-05 20:10:00,
2013-04-05 17:20:00,46.4,32.8,29.88,SE,146,10.0,10.0,59,0.00,,,0.00,Wunderground v.1.15,2013-04-05 20:20:00,
2013-04-05 17:30:00,46.6,33.0,29.87,SSE,155,9.0,22.0,59,0.00,,,0.00,Wunderground v.1.15,2013-04-05 20:30:00,
2013-04-05 17:40:00,46.4,33.7,29.86,SSE,150,8.0,8.0,61,0.00,,,0.00,Wunderground v.1.15,2013-04-05 20:40:00,
2013-04-05 17:50:00,46.3,34.0,29.86,South,181,8.0,8.0,62,0.00,,,0.00,Wunderground v.1.15,2013-04-05 20:50:00,
2013-04-05 18:00:00,45.9,34.4,29.86,SE,129,9.0,22.0,64,0.00,,,0.00,Wunderground v.1.15,2013-04-05 21:00:00,
2013-04-05 18:10:00,45.6,35.3,29.85,SSE,162,8.0,22.0,67,0.00,,,0.00,Wunderground v.1.15,2013-04-05 21:10:00,
2013-04-05 18:20:00,45.4,35.8,29.86,South,180,9.0,9.0,69,0.00,,,0.00,Wunderground v.1.15,2013-04-05 21:20:00,
2013-04-05 18:30:00,45.1,35.9,29.85,SSE,167,8.0,22.0,70,0.00,,,0.00,Wunderground v.1.15,2013-04-05 21:30:00,
2013-04-05 18:40:00,44.8,36.3,29.85,SSE,166,8.0,22.0,72,0.00,,,0.00,Wunderground v.1.15,2013-04-05 21:40:00,
2013-04-05 18:50:00,44.6,36.5,29.85,South,191,7.0,22.0,73,0.00,,,0.00,Wunderground v.1.15,2013-04-05 21:50:00,
2013-04-05 19:00:00,44.4,36.3,29.85,South,179,7.0,7.0,73,0.00,,,0.00,Wunderground v.1.15,2013-04-05 22:00:00,
2013-04-05 19:10:00,44.3,36.5,29.85,SSE,155,8.0,22.0,74,0.00,,,0.00,Wunderground v.1.15,2013-04-05 22:10:00,
2013-04-05 19:20:00,43.9,36.5,29.85,SSE,158,10.0,10.0,75,0.00,,,0.00,Wunderground v.1.15,2013-04-05 22:20:00,
2013-04-05 19:30:00,43.6,36.5,29.84,South,179,9.0,9.0,76,0.00,,,0.00,Wunderground v.1.15,2013-04-05 22:30:00,
2013-04-05 19:40:00,43.2,36.5,29.84,SSW,204,8.0,8.0,77,0.00,,,0.00,Wunderground v.1.15,2013-04-05 22:40:00,
2013-04-05 19:50:00,42.9,36.5,29.84,South,181,7.0,7.0,78,0.00,,,0.00,Wunderground v.1.15,2013-04-05 22:50:00,
2013-04-05 20:00:00,42.7,36.3,29.84,South,191,7.0,22.0,78,0.00,,,0.00,Wunderground v.1.15,2013-04-05 23:00:00,
2013-04-05 20:10:00,42.7,36.6,29.84,South,170,9.0,22.0,79,0.00,,,0.00,Wunderground v.1.15,2013-04-05 23:10:00,
2013-04-05 20:20:00,42.7,36.6,29.83,SSE,158,8.0,22.0,79,0.00,,,0.00,Wunderground v.1.15,2013-04-05 23:20:00,
2013-04-05 20:30:00,42.5,36.8,29.83,South,172,7.0,22.0,80,0.00,,,0.00,Wunderground v.1.15,2013-04-05 23:30:00,
2013-04-05 20:40:00,42.4,37.0,29.83,ESE,117,8.0,8.0,81,0.00,,,0.00,Wunderground v.1.15,2013-04-05 23:40:00,
2013-04-05 20:50:00,42.2,37.4,29.83,South,171,8.0,8.0,83,0.00,,,0.00,Wunderground v.1.15,2013-04-05 23:50:00,
2013-04-05 21:00:00,41.7,37.5,29.84,SSE,158,8.0,22.0,85,0.00,,,0.00,Wunderground v.1.15,2013-04-06 00:00:00,
2013-04-05 21:10:00,41.3,37.4,29.84,South,186,9.0,9.0,86,0.00,,,0.00,Wunderground v.1.15,2013-04-06 00:10:00,
2013-04-05 21:20:00,40.7,37.4,29.84,SSE,150,6.0,22.0,88,0.00,,,0.01,Wunderground v.1.15,2013-04-06 00:20:00,
2013-04-05 21:30:00,40.4,37.4,29.84,SSE,166,6.0,6.0,89,0.00,,,0.01,Wunderground v.1.15,2013-04-06 00:30:00,
2013-04-05 21:40:00,40.2,37.5,29.84,South,173,7.0,22.0,90,0.00,,,0.02,Wunderground v.1.15,2013-04-06 00:40:00,
2013-04-05 21:50:00,40.1,37.7,29.84,SE,133,6.0,22.0,91,0.00,,,0.02,Wunderground v.1.15,2013-04-06 00:50:00,
2013-04-05 22:00:00,40.2,38.1,29.83,South,187,6.0,22.0,92,0.04,,,0.02,Wunderground v.1.15,2013-04-06 01:00:00,
2013-04-05 22:10:00,40.4,38.5,29.83,SSE,161,4.0,22.0,93,0.09,,,0.04,Wunderground v.1.15,2013-04-06 01:10:00,
2013-04-05 22:20:00,40.6,38.7,29.82,SSE,152,5.0,5.0,93,0.06,,,0.05,Wunderground v.1.15,2013-04-06 01:20:00,
2013-04-05 22:30:00,40.5,38.6,29.81,SSE,150,4.0,22.0,93,0.07,,,0.06,Wunderground v.1.15,2013-04-06 01:30:00,
2013-04-05 22:40:00,40.3,38.4,29.81,South,187,3.0,22.0,93,0.08,,,0.06,Wunderground v.1.15,2013-04-06 01:40:00,
2013-04-05 22:50:00,40.1,38.5,29.81,SSE,152,3.0,3.0,94,0.06,,,0.07,Wunderground v.1.15,2013-04-06 01:50:00,
2013-04-05 23:00:00,39.9,38.3,29.80,South,179,3.0,22.0,94,0.04,,,0.08,Wunderground v.1.15,2013-04-06 02:00:00,
2013-04-05 23:10:00,39.8,38.2,29.80,SSW,194,4.0,22.0,94,0.04,,,0.08,Wunderground v.1.15,2013-04-06 02:10:00,
2013-04-05 23:20:00,39.7,38.1,29.79,South,187,3.0,22.0,94,0.04,,,0.09,Wunderground v.1.15,2013-04-06 02:20:00,
2013-04-05 23:30:00,39.6,38.0,29.78,SSE,155,3.0,22.0,94,0.06,,,0.09,Wunderground v.1.15,2013-04-06 02:30:00,
2013-04-05 23:40:00,39.4,37.8,29.76,SE,139,3.0,3.0,94,0.06,,,0.10,Wunderground v.1.15,2013-04-06 02:40:00,
2013-04-05 23:50:00,39.3,38.0,29.76,SSE,154,3.0,22.0,95,0.10,,,0.12,Wunderground v.1.15,2013-04-06 02:50:00,